EWG7CK EDDH-GCLP
Flight info
| Callsign | EWG7CK |
|---|---|
| Flight time | 4h 53m |
| Altitude | 36000 |
| Route | HABFU1B HABFU Y348 MAWEQ DCT RASCA/N0446F370 DCT FAMEN DCT AHVEC DCT RESMI DCT DEKOD DCT DISAK DCT ARKIP DCT ARNAV DCT LMG DCT UVELI DCT OSMOB DCT ARVID DCT PPN DCT NOLSA DCT ALEPO DCT VASUM N10 BAN DCT GOTOR DCT KAMPO DCT MONTO/N0447F390 DCT MOLIN DCT HIJ DCT SVL DCT CLANA DCT KORNO/N0448F370 UN857 TERTO |
| Aircraft | A320/M-SDE2E3FGIJ1RWXYZ/LB1 |
Departure
| Time | 2026-05-01 08:27 |
|---|---|
| Airport | Hamburg Helmut Schmidt Airport (EDDH) |
Arrival
| Time | 2026-05-01 13:21 |
|---|---|
| Airport | Gran Canaria Airport (GCLP) |
| Time | Latitude | Longitude | Altitude | Speed | Heading |
|---|---|---|---|---|---|
| 2026-05-01 07:23 | 53.62844 | 10.00216 | 49 ft | 0 kts | 62° |
| 2026-05-01 08:19 | 53.62843 | 10.00213 | 48 ft | 2 kts | 62° |
| 2026-05-01 08:19 | 53.62830 | 10.00176 | 46 ft | 4 kts | 52° |
| 2026-05-01 08:19 | 53.62812 | 10.00143 | 47 ft | 4 kts | 36° |
| 2026-05-01 08:20 | 53.62789 | 10.00125 | 48 ft | 4 kts | 355° |
| 2026-05-01 08:20 | 53.62779 | 10.00128 | 48 ft | 0 kts | 333° |
| 2026-05-01 08:23 | 53.62788 | 10.00120 | 48 ft | 3 kts | 333° |
| 2026-05-01 08:23 | 53.62809 | 10.00102 | 48 ft | 5 kts | 333° |
| 2026-05-01 08:24 | 53.62843 | 10.00069 | 48 ft | 5 kts | 320° |
| 2026-05-01 08:24 | 53.62857 | 10.00005 | 48 ft | 5 kts | 264° |
| 2026-05-01 08:24 | 53.62844 | 9.99956 | 45 ft | 0 kts | 243° |
| 2026-05-01 08:25 | 53.62843 | 9.99956 | 46 ft | 0 kts | 243° |
| 2026-05-01 08:25 | 53.62835 | 9.99928 | 47 ft | 6 kts | 243° |
| 2026-05-01 08:25 | 53.62814 | 9.99857 | 45 ft | 9 kts | 243° |
| 2026-05-01 08:25 | 53.62819 | 9.99786 | 45 ft | 6 kts | 321° |
| 2026-05-01 08:26 | 53.62835 | 9.99773 | 45 ft | 0 kts | 333° |
| 2026-05-01 08:26 | 53.62866 | 9.99746 | 45 ft | 25 kts | 333° |
| 2026-05-01 08:26 | 53.63256 | 9.99410 | 47 ft | 96 kts | 333° |
| 2026-05-01 08:27 | 53.64011 | 9.98759 | 51 ft | 149 kts | 333° |
| 2026-05-01 08:27 | 53.65067 | 9.97836 | 164 ft | 181 kts | 333° |
| 2026-05-01 08:27 | 53.66170 | 9.96878 | 924 ft | 177 kts | 332° |
| 2026-05-01 08:27 | 53.67280 | 9.95929 | 1574 ft | 183 kts | 332° |
| 2026-05-01 08:28 | 53.68488 | 9.94900 | 1978 ft | 207 kts | 333° |
| 2026-05-01 08:28 | 53.69820 | 9.93761 | 2440 ft | 221 kts | 331° |
| 2026-05-01 08:28 | 53.70984 | 9.92079 | 3118 ft | 225 kts | 300° |
| 2026-05-01 08:28 | 53.71426 | 9.89555 | 3633 ft | 235 kts | 265° |
| 2026-05-01 08:29 | 53.71011 | 9.86781 | 4019 ft | 256 kts | 249° |
| 2026-05-01 08:29 | 53.70411 | 9.83876 | 4689 ft | 267 kts | 249° |
| 2026-05-01 08:29 | 53.69799 | 9.80885 | 5505 ft | 272 kts | 249° |
| 2026-05-01 08:29 | 53.69186 | 9.77833 | 6293 ft | 277 kts | 250° |
| 2026-05-01 08:30 | 53.68566 | 9.74727 | 7071 ft | 281 kts | 249° |
| 2026-05-01 08:30 | 53.67942 | 9.71573 | 7818 ft | 286 kts | 250° |
| 2026-05-01 08:30 | 53.67311 | 9.68365 | 8544 ft | 290 kts | 250° |
| 2026-05-01 08:30 | 53.66679 | 9.65152 | 9290 ft | 294 kts | 250° |
| 2026-05-01 08:31 | 53.66008 | 9.61860 | 10011 ft | 298 kts | 245° |
| 2026-05-01 08:31 | 53.64962 | 9.58846 | 10704 ft | 299 kts | 228° |
| 2026-05-01 08:31 | 53.63452 | 9.56366 | 11075 ft | 312 kts | 212° |
| 2026-05-01 08:31 | 53.61517 | 9.54479 | 11231 ft | 332 kts | 205° |
| 2026-05-01 08:32 | 53.59426 | 9.52604 | 11586 ft | 346 kts | 205° |
| 2026-05-01 08:32 | 53.57290 | 9.50670 | 12188 ft | 351 kts | 206° |
| 2026-05-01 08:32 | 53.55135 | 9.48699 | 12834 ft | 354 kts | 206° |
| 2026-05-01 08:32 | 53.52962 | 9.46702 | 13485 ft | 357 kts | 206° |
| 2026-05-01 08:33 | 53.50767 | 9.44685 | 14142 ft | 361 kts | 206° |
| 2026-05-01 08:33 | 53.48550 | 9.42659 | 14701 ft | 364 kts | 206° |
| 2026-05-01 08:33 | 53.46316 | 9.40628 | 15279 ft | 367 kts | 206° |
| 2026-05-01 08:33 | 53.44061 | 9.38581 | 15849 ft | 370 kts | 206° |
| 2026-05-01 08:34 | 53.41789 | 9.36516 | 16421 ft | 373 kts | 206° |
| 2026-05-01 08:34 | 53.39499 | 9.34434 | 16955 ft | 376 kts | 206° |
| 2026-05-01 08:34 | 53.37193 | 9.32343 | 17503 ft | 379 kts | 206° |
| 2026-05-01 08:34 | 53.34865 | 9.30239 | 18041 ft | 382 kts | 206° |
| 2026-05-01 08:35 | 53.32452 | 9.28358 | 18597 ft | 383 kts | 198° |
| 2026-05-01 08:35 | 53.29876 | 9.27208 | 19051 ft | 384 kts | 188° |
| 2026-05-01 08:35 | 53.27236 | 9.26433 | 19505 ft | 387 kts | 188° |
| 2026-05-01 08:35 | 53.24572 | 9.25649 | 19960 ft | 390 kts | 188° |
| 2026-05-01 08:36 | 53.21897 | 9.24857 | 20411 ft | 392 kts | 188° |
| 2026-05-01 08:36 | 53.19200 | 9.24056 | 20851 ft | 395 kts | 188° |
| 2026-05-01 08:36 | 53.16485 | 9.23247 | 21283 ft | 398 kts | 188° |
| 2026-05-01 08:36 | 53.13748 | 9.22433 | 21722 ft | 400 kts | 189° |
| 2026-05-01 08:37 | 53.10995 | 9.21617 | 22154 ft | 403 kts | 188° |
| 2026-05-01 08:37 | 53.08225 | 9.20794 | 22575 ft | 406 kts | 188° |
| 2026-05-01 08:37 | 53.05436 | 9.19971 | 22984 ft | 408 kts | 189° |
| 2026-05-01 08:37 | 53.02622 | 9.19144 | 23384 ft | 411 kts | 188° |
| 2026-05-01 08:38 | 52.99797 | 9.18315 | 23792 ft | 414 kts | 189° |
| 2026-05-01 08:38 | 52.96960 | 9.17442 | 24145 ft | 417 kts | 192° |
| 2026-05-01 08:38 | 52.94185 | 9.15989 | 24462 ft | 421 kts | 202° |
| 2026-05-01 08:38 | 52.91553 | 9.13830 | 24781 ft | 424 kts | 207° |
| 2026-05-01 08:39 | 52.88946 | 9.11518 | 25105 ft | 426 kts | 207° |
| 2026-05-01 08:39 | 52.86321 | 9.09201 | 25417 ft | 429 kts | 207° |
| 2026-05-01 08:39 | 52.83678 | 9.06880 | 25722 ft | 431 kts | 207° |
| 2026-05-01 08:39 | 52.81019 | 9.04558 | 26032 ft | 433 kts | 207° |
| 2026-05-01 08:40 | 52.75679 | 8.99925 | 26642 ft | 438 kts | 207° |
| 2026-05-01 08:40 | 52.72978 | 8.97586 | 26939 ft | 440 kts | 207° |
| 2026-05-01 08:40 | 52.70262 | 8.95227 | 27237 ft | 442 kts | 208° |
| 2026-05-01 08:41 | 52.67535 | 8.92850 | 27534 ft | 444 kts | 208° |
| 2026-05-01 08:41 | 52.64794 | 8.90465 | 27828 ft | 446 kts | 208° |
| 2026-05-01 08:41 | 52.62040 | 8.88073 | 28125 ft | 449 kts | 208° |
| 2026-05-01 08:41 | 52.59270 | 8.85678 | 28416 ft | 451 kts | 208° |
| 2026-05-01 08:42 | 52.56488 | 8.83272 | 28702 ft | 453 kts | 208° |
| 2026-05-01 08:42 | 52.53693 | 8.80857 | 28989 ft | 455 kts | 208° |
| 2026-05-01 08:42 | 52.50885 | 8.78434 | 29255 ft | 457 kts | 208° |
| 2026-05-01 08:42 | 52.48064 | 8.76005 | 29510 ft | 459 kts | 208° |
| 2026-05-01 08:43 | 52.45228 | 8.73571 | 29750 ft | 461 kts | 208° |
| 2026-05-01 08:43 | 52.42378 | 8.71132 | 29999 ft | 463 kts | 208° |
| 2026-05-01 08:43 | 52.39519 | 8.68687 | 30230 ft | 465 kts | 208° |
| 2026-05-01 08:43 | 52.36641 | 8.66229 | 30464 ft | 467 kts | 208° |
| 2026-05-01 08:44 | 52.33754 | 8.63764 | 30677 ft | 469 kts | 208° |
| 2026-05-01 08:44 | 52.30877 | 8.61304 | 30973 ft | 467 kts | 209° |
| 2026-05-01 08:44 | 52.28129 | 8.58482 | 31292 ft | 465 kts | 218° |
| 2026-05-01 08:44 | 52.25679 | 8.55060 | 31583 ft | 463 kts | 226° |
| 2026-05-01 08:45 | 52.23528 | 8.51176 | 31869 ft | 461 kts | 230° |
| 2026-05-01 08:45 | 52.21427 | 8.47228 | 32167 ft | 460 kts | 230° |
| 2026-05-01 08:45 | 52.19324 | 8.43295 | 32459 ft | 460 kts | 230° |
| 2026-05-01 08:45 | 52.17220 | 8.39377 | 32747 ft | 459 kts | 230° |
| 2026-05-01 08:46 | 52.15116 | 8.35471 | 33051 ft | 458 kts | 230° |
| 2026-05-01 08:46 | 52.13015 | 8.31575 | 33347 ft | 457 kts | 230° |
| 2026-05-01 08:46 | 52.10916 | 8.27688 | 33632 ft | 457 kts | 230° |
| 2026-05-01 08:46 | 52.08818 | 8.23811 | 33908 ft | 456 kts | 230° |
| 2026-05-01 08:47 | 52.06725 | 8.19945 | 34196 ft | 455 kts | 230° |
| 2026-05-01 08:47 | 52.04630 | 8.16074 | 34472 ft | 455 kts | 230° |
| 2026-05-01 08:47 | 52.02544 | 8.12225 | 34728 ft | 454 kts | 230° |
| 2026-05-01 08:47 | 52.00457 | 8.08379 | 34974 ft | 453 kts | 230° |
| 2026-05-01 08:48 | 51.99075 | 8.05837 | 35128 ft | 453 kts | 230° |
| 2026-05-01 08:48 | 51.96992 | 8.02011 | 35348 ft | 452 kts | 230° |
| 2026-05-01 08:48 | 51.94228 | 7.96963 | 35646 ft | 451 kts | 230° |
| 2026-05-01 08:48 | 51.92146 | 7.93162 | 35864 ft | 451 kts | 230° |
| 2026-05-01 08:49 | 51.90068 | 7.89367 | 36081 ft | 450 kts | 230° |
| 2026-05-01 08:49 | 51.88661 | 7.86802 | 36221 ft | 449 kts | 230° |
| 2026-05-01 08:49 | 51.86587 | 7.83025 | 36369 ft | 449 kts | 229° |
| 2026-05-01 08:49 | 51.84509 | 7.79253 | 36400 ft | 449 kts | 229° |
| 2026-05-01 08:50 | 51.80379 | 7.71776 | 36392 ft | 448 kts | 229° |
| 2026-05-01 08:50 | 51.76220 | 7.64256 | 36386 ft | 448 kts | 229° |
| 2026-05-01 08:51 | 51.72071 | 7.56760 | 36388 ft | 448 kts | 229° |
| 2026-05-01 08:51 | 51.67914 | 7.49285 | 36382 ft | 448 kts | 229° |
| 2026-05-01 08:52 | 51.63750 | 7.41827 | 36378 ft | 448 kts | 229° |
| 2026-05-01 08:52 | 51.59587 | 7.34378 | 36374 ft | 447 kts | 229° |
| 2026-05-01 08:53 | 51.55418 | 7.26951 | 36371 ft | 447 kts | 229° |
| 2026-05-01 08:53 | 51.51241 | 7.19536 | 36367 ft | 447 kts | 229° |
| 2026-05-01 08:54 | 51.47058 | 7.12129 | 36358 ft | 447 kts | 229° |
| 2026-05-01 08:54 | 51.42880 | 7.04746 | 36356 ft | 447 kts | 229° |
| 2026-05-01 08:55 | 51.38700 | 6.97387 | 36357 ft | 447 kts | 229° |
| 2026-05-01 08:55 | 51.34518 | 6.90040 | 36357 ft | 446 kts | 228° |
| 2026-05-01 08:56 | 51.30328 | 6.82715 | 36353 ft | 446 kts | 228° |
| 2026-05-01 08:56 | 51.26140 | 6.75411 | 36356 ft | 445 kts | 228° |
| 2026-05-01 08:57 | 51.21984 | 6.68166 | 36357 ft | 445 kts | 228° |
| 2026-05-01 08:57 | 51.17793 | 6.60888 | 36358 ft | 445 kts | 227° |
| 2026-05-01 08:58 | 51.13604 | 6.53652 | 36360 ft | 444 kts | 227° |
| 2026-05-01 08:58 | 51.09415 | 6.46424 | 36355 ft | 444 kts | 227° |
| 2026-05-01 08:59 | 51.05222 | 6.39220 | 36352 ft | 444 kts | 227° |
| 2026-05-01 08:59 | 51.01056 | 6.32076 | 36330 ft | 443 kts | 227° |
| 2026-05-01 09:00 | 50.96858 | 6.24896 | 36327 ft | 443 kts | 227° |
| 2026-05-01 09:00 | 50.92660 | 6.17717 | 36324 ft | 443 kts | 227° |
| 2026-05-01 09:01 | 50.88459 | 6.10565 | 36327 ft | 443 kts | 227° |
| 2026-05-01 09:01 | 50.84253 | 6.03441 | 36329 ft | 443 kts | 227° |
| 2026-05-01 09:02 | 50.80042 | 5.96330 | 36305 ft | 443 kts | 227° |
| 2026-05-01 09:02 | 50.75835 | 5.89236 | 36307 ft | 442 kts | 227° |
| 2026-05-01 09:03 | 50.71619 | 5.82148 | 36303 ft | 442 kts | 226° |
| 2026-05-01 09:03 | 50.67432 | 5.75128 | 36305 ft | 442 kts | 226° |
| 2026-05-01 09:04 | 50.63222 | 5.68083 | 36310 ft | 441 kts | 226° |
| 2026-05-01 09:04 | 50.59005 | 5.61055 | 36306 ft | 441 kts | 226° |
| 2026-05-01 09:05 | 50.54788 | 5.54041 | 36307 ft | 441 kts | 226° |
| 2026-05-01 09:05 | 50.50568 | 5.47042 | 36302 ft | 441 kts | 226° |
| 2026-05-01 09:06 | 50.46344 | 5.40055 | 36301 ft | 441 kts | 226° |
| 2026-05-01 09:06 | 50.42123 | 5.33091 | 36300 ft | 440 kts | 226° |
| 2026-05-01 09:07 | 50.37896 | 5.26138 | 36296 ft | 440 kts | 226° |
| 2026-05-01 09:07 | 50.33669 | 5.19191 | 36177 ft | 440 kts | 226° |
| 2026-05-01 09:08 | 50.29464 | 5.12311 | 35981 ft | 440 kts | 225° |
| 2026-05-01 09:08 | 50.27338 | 5.08848 | 35873 ft | 440 kts | 225° |
| 2026-05-01 09:08 | 50.25215 | 5.05397 | 35773 ft | 440 kts | 225° |
| 2026-05-01 09:09 | 50.23093 | 5.01950 | 35668 ft | 440 kts | 225° |
| 2026-05-01 09:09 | 50.20969 | 4.98495 | 35570 ft | 440 kts | 225° |
| 2026-05-01 09:09 | 50.18847 | 4.95048 | 35468 ft | 440 kts | 225° |
| 2026-05-01 09:09 | 50.16719 | 4.91597 | 35285 ft | 441 kts | 225° |
| 2026-05-01 09:10 | 50.12525 | 4.84627 | 35288 ft | 441 kts | 227° |
| 2026-05-01 09:10 | 50.08602 | 4.77378 | 35291 ft | 441 kts | 229° |
| 2026-05-01 09:11 | 50.04725 | 4.69991 | 35290 ft | 440 kts | 229° |
| 2026-05-01 09:11 | 50.00805 | 4.62661 | 35290 ft | 440 kts | 228° |
| 2026-05-01 09:12 | 49.96823 | 4.55424 | 35291 ft | 439 kts | 226° |
| 2026-05-01 09:12 | 49.92655 | 4.48500 | 35290 ft | 439 kts | 224° |
| 2026-05-01 09:13 | 49.88387 | 4.41729 | 35295 ft | 438 kts | 224° |
| 2026-05-01 09:13 | 49.84149 | 4.34936 | 35292 ft | 439 kts | 224° |
| 2026-05-01 09:14 | 49.79968 | 4.28140 | 35285 ft | 438 kts | 224° |
| 2026-05-01 09:14 | 49.75757 | 4.21312 | 35288 ft | 438 kts | 224° |
| 2026-05-01 09:15 | 49.71538 | 4.14503 | 35286 ft | 438 kts | 224° |
| 2026-05-01 09:15 | 49.67312 | 4.07718 | 35286 ft | 438 kts | 224° |
| 2026-05-01 09:16 | 49.63084 | 4.00937 | 35279 ft | 439 kts | 224° |
| 2026-05-01 09:17 | 49.56720 | 3.90765 | 35278 ft | 439 kts | 224° |
| 2026-05-01 09:17 | 49.50345 | 3.80612 | 35275 ft | 439 kts | 224° |
| 2026-05-01 09:18 | 49.43997 | 3.70548 | 35271 ft | 438 kts | 223° |
| 2026-05-01 09:19 | 49.37626 | 3.60474 | 35265 ft | 438 kts | 223° |
| 2026-05-01 09:20 | 49.31247 | 3.50436 | 35258 ft | 438 kts | 223° |
| 2026-05-01 09:21 | 49.22732 | 3.37112 | 35255 ft | 437 kts | 223° |
| 2026-05-01 09:21 | 49.16352 | 3.27160 | 35255 ft | 437 kts | 223° |
| 2026-05-01 09:22 | 49.07864 | 3.14000 | 35252 ft | 436 kts | 222° |
| 2026-05-01 09:23 | 49.01465 | 3.04128 | 35253 ft | 436 kts | 222° |
| 2026-05-01 09:24 | 48.97152 | 2.97475 | 35253 ft | 436 kts | 222° |
| 2026-05-01 09:25 | 48.89048 | 2.85051 | 35247 ft | 435 kts | 222° |
| 2026-05-01 09:26 | 48.82703 | 2.75277 | 35247 ft | 436 kts | 225° |
| 2026-05-01 09:26 | 48.77365 | 2.63925 | 35249 ft | 440 kts | 232° |
| 2026-05-01 09:27 | 48.72175 | 2.52525 | 35247 ft | 440 kts | 231° |
| 2026-05-01 09:28 | 48.68696 | 2.44914 | 35245 ft | 440 kts | 231° |
| 2026-05-01 09:28 | 48.65204 | 2.37307 | 35248 ft | 440 kts | 231° |
| 2026-05-01 09:29 | 48.59884 | 2.26000 | 35246 ft | 437 kts | 225° |
| 2026-05-01 09:30 | 48.52638 | 2.18213 | 35245 ft | 423 kts | 197° |
| 2026-05-01 09:30 | 48.44153 | 2.15113 | 35242 ft | 420 kts | 189° |
| 2026-05-01 09:31 | 48.38424 | 2.13291 | 35244 ft | 420 kts | 188° |
| 2026-05-01 09:32 | 48.29809 | 2.10767 | 35240 ft | 420 kts | 187° |
| 2026-05-01 09:32 | 48.21148 | 2.08243 | 35241 ft | 421 kts | 188° |
| 2026-05-01 09:33 | 48.15400 | 2.06529 | 35243 ft | 421 kts | 188° |
| 2026-05-01 09:34 | 48.06764 | 2.03972 | 35245 ft | 422 kts | 188° |
| 2026-05-01 09:34 | 47.98112 | 2.01424 | 35246 ft | 423 kts | 188° |
| 2026-05-01 09:35 | 47.89453 | 1.98883 | 35245 ft | 423 kts | 188° |
| 2026-05-01 09:36 | 47.83670 | 1.97200 | 35248 ft | 424 kts | 188° |
| 2026-05-01 09:36 | 47.77880 | 1.95516 | 35243 ft | 424 kts | 188° |
| 2026-05-01 09:37 | 47.72082 | 1.93826 | 35246 ft | 425 kts | 188° |
| 2026-05-01 09:37 | 47.64350 | 1.91575 | 35242 ft | 426 kts | 188° |
| 2026-05-01 09:38 | 47.55610 | 1.89058 | 35248 ft | 427 kts | 188° |
| 2026-05-01 09:39 | 47.46846 | 1.86522 | 35249 ft | 428 kts | 189° |
| 2026-05-01 09:39 | 47.40988 | 1.84841 | 35246 ft | 429 kts | 189° |
| 2026-05-01 09:40 | 47.32177 | 1.82325 | 35253 ft | 431 kts | 189° |
| 2026-05-01 09:41 | 47.26280 | 1.80629 | 35247 ft | 432 kts | 189° |
| 2026-05-01 09:41 | 47.17544 | 1.77282 | 35241 ft | 435 kts | 200° |
| 2026-05-01 09:42 | 47.11891 | 1.74078 | 35247 ft | 436 kts | 200° |
| 2026-05-01 09:43 | 47.00540 | 1.67695 | 35261 ft | 437 kts | 200° |
| 2026-05-01 09:43 | 46.94847 | 1.64511 | 35278 ft | 438 kts | 200° |
| 2026-05-01 09:44 | 46.86297 | 1.59746 | 35270 ft | 439 kts | 201° |
| 2026-05-01 09:45 | 46.80588 | 1.56566 | 35270 ft | 439 kts | 201° |
| 2026-05-01 09:45 | 46.72034 | 1.51803 | 35260 ft | 439 kts | 201° |
| 2026-05-01 09:46 | 46.66320 | 1.48645 | 35249 ft | 440 kts | 201° |
| 2026-05-01 09:46 | 46.60595 | 1.45493 | 35251 ft | 440 kts | 202° |
| 2026-05-01 09:47 | 46.54871 | 1.42338 | 35258 ft | 440 kts | 202° |
| 2026-05-01 09:47 | 46.49142 | 1.39180 | 35255 ft | 440 kts | 202° |
| 2026-05-01 09:48 | 46.43414 | 1.36032 | 35254 ft | 440 kts | 202° |
| 2026-05-01 09:48 | 46.37696 | 1.32896 | 35251 ft | 439 kts | 202° |
| 2026-05-01 09:49 | 46.31976 | 1.29775 | 35253 ft | 439 kts | 203° |
| 2026-05-01 09:49 | 46.26238 | 1.26654 | 35255 ft | 439 kts | 203° |
| 2026-05-01 09:50 | 46.20539 | 1.23556 | 35257 ft | 438 kts | 203° |
| 2026-05-01 09:50 | 46.14833 | 1.20459 | 35261 ft | 438 kts | 203° |
| 2026-05-01 09:51 | 46.09122 | 1.17372 | 35268 ft | 438 kts | 204° |
| 2026-05-01 09:51 | 46.03429 | 1.14293 | 35269 ft | 437 kts | 203° |
| 2026-05-01 09:52 | 45.97737 | 1.11231 | 35271 ft | 437 kts | 203° |
| 2026-05-01 09:52 | 45.92041 | 1.08163 | 35272 ft | 437 kts | 203° |
| 2026-05-01 09:53 | 45.86325 | 1.05097 | 35272 ft | 437 kts | 203° |
| 2026-05-01 09:53 | 45.80888 | 1.01439 | 35270 ft | 432 kts | 216° |
| 2026-05-01 09:54 | 45.76222 | 0.96100 | 35267 ft | 430 kts | 222° |
| 2026-05-01 09:54 | 45.71631 | 0.90596 | 35262 ft | 430 kts | 222° |
| 2026-05-01 09:55 | 45.67006 | 0.85085 | 35258 ft | 431 kts | 222° |
| 2026-05-01 09:55 | 45.62410 | 0.79617 | 35251 ft | 431 kts | 222° |
| 2026-05-01 09:56 | 45.57805 | 0.74145 | 35251 ft | 431 kts | 221° |
| 2026-05-01 09:56 | 45.53185 | 0.68652 | 35249 ft | 431 kts | 221° |
| 2026-05-01 09:57 | 45.48591 | 0.63205 | 35247 ft | 431 kts | 221° |
| 2026-05-01 09:57 | 45.43963 | 0.57752 | 35247 ft | 432 kts | 221° |
| 2026-05-01 09:58 | 45.39329 | 0.52291 | 35244 ft | 432 kts | 221° |
| 2026-05-01 09:58 | 45.34710 | 0.46847 | 35244 ft | 432 kts | 221° |
| 2026-05-01 09:59 | 45.30066 | 0.41393 | 35242 ft | 432 kts | 221° |
| 2026-05-01 09:59 | 45.25418 | 0.35958 | 35241 ft | 432 kts | 220° |
| 2026-05-01 10:00 | 45.20786 | 0.30553 | 35237 ft | 432 kts | 220° |
| 2026-05-01 10:00 | 45.16148 | 0.25135 | 35239 ft | 432 kts | 220° |
| 2026-05-01 10:01 | 45.11478 | 0.19704 | 35231 ft | 432 kts | 220° |
| 2026-05-01 10:01 | 45.06836 | 0.14325 | 35232 ft | 432 kts | 220° |
| 2026-05-01 10:02 | 45.02184 | 0.08935 | 35235 ft | 432 kts | 220° |
| 2026-05-01 10:02 | 44.97527 | 0.03556 | 35231 ft | 432 kts | 220° |
| 2026-05-01 10:03 | 44.92874 | -0.01810 | 35228 ft | 432 kts | 220° |
| 2026-05-01 10:03 | 44.88205 | -0.07187 | 35231 ft | 432 kts | 220° |
| 2026-05-01 10:04 | 44.83558 | -0.12533 | 35222 ft | 432 kts | 219° |
| 2026-05-01 10:04 | 44.78922 | -0.17850 | 35221 ft | 431 kts | 219° |
| 2026-05-01 10:05 | 44.74242 | -0.23201 | 35220 ft | 431 kts | 219° |
| 2026-05-01 10:05 | 44.69596 | -0.28497 | 35217 ft | 431 kts | 219° |
| 2026-05-01 10:06 | 44.64878 | -0.33687 | 35217 ft | 431 kts | 213° |
| 2026-05-01 10:06 | 44.59603 | -0.37744 | 35216 ft | 431 kts | 208° |
| 2026-05-01 10:07 | 44.54280 | -0.41648 | 35215 ft | 431 kts | 208° |
| 2026-05-01 10:07 | 44.48969 | -0.45546 | 35215 ft | 431 kts | 208° |
| 2026-05-01 10:08 | 44.40982 | -0.51393 | 35215 ft | 432 kts | 208° |
| 2026-05-01 10:09 | 44.35690 | -0.55264 | 35213 ft | 432 kts | 208° |
| 2026-05-01 10:09 | 44.30342 | -0.59165 | 35211 ft | 432 kts | 207° |
| 2026-05-01 10:10 | 44.25012 | -0.63048 | 35216 ft | 432 kts | 207° |
| 2026-05-01 10:10 | 44.17027 | -0.68837 | 35215 ft | 432 kts | 207° |
| 2026-05-01 10:11 | 44.11673 | -0.72702 | 35212 ft | 432 kts | 207° |
| 2026-05-01 10:11 | 44.06341 | -0.76548 | 35214 ft | 432 kts | 207° |
| 2026-05-01 10:12 | 44.01898 | -0.79754 | 35216 ft | 432 kts | 207° |
| 2026-05-01 10:13 | 43.93052 | -0.86127 | 35214 ft | 429 kts | 207° |
| 2026-05-01 10:13 | 43.87752 | -0.89928 | 35202 ft | 429 kts | 207° |
| 2026-05-01 10:14 | 43.79796 | -0.95608 | 35194 ft | 428 kts | 208° |
| 2026-05-01 10:14 | 43.74501 | -0.99387 | 35192 ft | 428 kts | 208° |
| 2026-05-01 10:15 | 43.70102 | -1.02520 | 35194 ft | 428 kts | 208° |
| 2026-05-01 10:15 | 43.64807 | -1.06283 | 35194 ft | 428 kts | 208° |
| 2026-05-01 10:16 | 43.59517 | -1.10037 | 35196 ft | 427 kts | 208° |
| 2026-05-01 10:17 | 43.51589 | -1.15644 | 35194 ft | 427 kts | 208° |
| 2026-05-01 10:17 | 43.43665 | -1.21240 | 35186 ft | 426 kts | 208° |
| 2026-05-01 10:18 | 43.35739 | -1.26815 | 35184 ft | 426 kts | 208° |
| 2026-05-01 10:19 | 43.30461 | -1.30525 | 35185 ft | 426 kts | 208° |
| 2026-05-01 10:19 | 43.25180 | -1.34219 | 35183 ft | 426 kts | 208° |
| 2026-05-01 10:20 | 43.17263 | -1.39749 | 35180 ft | 425 kts | 209° |
| 2026-05-01 10:20 | 43.11990 | -1.43426 | 35177 ft | 426 kts | 209° |
| 2026-05-01 10:21 | 43.04068 | -1.48928 | 35190 ft | 425 kts | 209° |
| 2026-05-01 10:22 | 42.96158 | -1.54436 | 35203 ft | 425 kts | 209° |
| 2026-05-01 10:23 | 42.88252 | -1.59925 | 35213 ft | 425 kts | 209° |
| 2026-05-01 10:23 | 42.80341 | -1.65388 | 35213 ft | 424 kts | 209° |
| 2026-05-01 10:24 | 42.69803 | -1.72635 | 35211 ft | 424 kts | 209° |
| 2026-05-01 10:25 | 42.59212 | -1.79727 | 35202 ft | 424 kts | 209° |
| 2026-05-01 10:26 | 42.53919 | -1.83268 | 35200 ft | 424 kts | 209° |
| 2026-05-01 10:27 | 42.43335 | -1.90352 | 35191 ft | 424 kts | 209° |
| 2026-05-01 10:28 | 42.35431 | -1.95631 | 35189 ft | 424 kts | 209° |
| 2026-05-01 10:28 | 42.27468 | -2.00927 | 35185 ft | 424 kts | 209° |
| 2026-05-01 10:29 | 42.19555 | -2.06157 | 35181 ft | 424 kts | 209° |
| 2026-05-01 10:30 | 42.08958 | -2.13139 | 35177 ft | 423 kts | 209° |
| 2026-05-01 10:31 | 41.98364 | -2.20116 | 35170 ft | 423 kts | 209° |
| 2026-05-01 10:32 | 41.90443 | -2.25322 | 35171 ft | 423 kts | 210° |
| 2026-05-01 10:33 | 41.79870 | -2.32228 | 35170 ft | 423 kts | 209° |
| 2026-05-01 10:34 | 41.71922 | -2.37406 | 35167 ft | 422 kts | 210° |
| 2026-05-01 10:34 | 41.66661 | -2.40835 | 35171 ft | 422 kts | 210° |
| 2026-05-01 10:35 | 41.58715 | -2.45984 | 35170 ft | 422 kts | 209° |
| 2026-05-01 10:35 | 41.53445 | -2.49387 | 35164 ft | 422 kts | 210° |
| 2026-05-01 10:36 | 41.45501 | -2.54519 | 35168 ft | 422 kts | 210° |
| 2026-05-01 10:37 | 41.40219 | -2.57925 | 35162 ft | 422 kts | 210° |
| 2026-05-01 10:37 | 41.32325 | -2.63086 | 35164 ft | 419 kts | 214° |
| 2026-05-01 10:38 | 41.27537 | -2.67448 | 35156 ft | 417 kts | 218° |
| 2026-05-01 10:38 | 41.22762 | -2.71836 | 35158 ft | 417 kts | 218° |
| 2026-05-01 10:39 | 41.17980 | -2.76212 | 35156 ft | 417 kts | 218° |
| 2026-05-01 10:39 | 41.13208 | -2.80585 | 35154 ft | 418 kts | 218° |
| 2026-05-01 10:40 | 41.08432 | -2.84967 | 35161 ft | 418 kts | 218° |
| 2026-05-01 10:40 | 41.03657 | -2.89335 | 35163 ft | 418 kts | 218° |
| 2026-05-01 10:41 | 40.98850 | -2.93725 | 35162 ft | 418 kts | 218° |
| 2026-05-01 10:42 | 40.91663 | -3.00263 | 35162 ft | 418 kts | 218° |
| 2026-05-01 10:42 | 40.86870 | -3.04608 | 35163 ft | 418 kts | 218° |
| 2026-05-01 10:43 | 40.82089 | -3.08939 | 35165 ft | 418 kts | 218° |
| 2026-05-01 10:43 | 40.77275 | -3.13301 | 35165 ft | 417 kts | 218° |
| 2026-05-01 10:44 | 40.72495 | -3.17632 | 35179 ft | 417 kts | 218° |
| 2026-05-01 10:44 | 40.67711 | -3.21953 | 35174 ft | 417 kts | 218° |
| 2026-05-01 10:45 | 40.62917 | -3.26257 | 35186 ft | 417 kts | 217° |
| 2026-05-01 10:45 | 40.58130 | -3.30551 | 35178 ft | 416 kts | 217° |
| 2026-05-01 10:46 | 40.53346 | -3.34847 | 35182 ft | 416 kts | 217° |
| 2026-05-01 10:46 | 40.48568 | -3.39131 | 35179 ft | 416 kts | 217° |
| 2026-05-01 10:47 | 40.43788 | -3.43400 | 35181 ft | 415 kts | 217° |
| 2026-05-01 10:47 | 40.39011 | -3.47662 | 35178 ft | 415 kts | 217° |
| 2026-05-01 10:48 | 40.34239 | -3.51914 | 35173 ft | 415 kts | 217° |
| 2026-05-01 10:48 | 40.29463 | -3.56166 | 35180 ft | 414 kts | 217° |
| 2026-05-01 10:49 | 40.24725 | -3.60381 | 35177 ft | 414 kts | 217° |
| 2026-05-01 10:49 | 40.19957 | -3.64609 | 35175 ft | 414 kts | 216° |
| 2026-05-01 10:50 | 40.15186 | -3.68818 | 35174 ft | 414 kts | 216° |
| 2026-05-01 10:50 | 40.10384 | -3.73051 | 35168 ft | 414 kts | 216° |
| 2026-05-01 10:51 | 40.05616 | -3.77257 | 35159 ft | 414 kts | 216° |
| 2026-05-01 10:51 | 40.00842 | -3.81468 | 35150 ft | 414 kts | 216° |
| 2026-05-01 10:52 | 39.96093 | -3.85639 | 35149 ft | 414 kts | 216° |
| 2026-05-01 10:52 | 39.91316 | -3.89829 | 35143 ft | 414 kts | 216° |
| 2026-05-01 10:53 | 39.87309 | -3.93340 | 35141 ft | 414 kts | 216° |
| 2026-05-01 10:53 | 39.81745 | -3.98202 | 35144 ft | 414 kts | 215° |
| 2026-05-01 10:54 | 39.77766 | -4.01670 | 35144 ft | 414 kts | 215° |
| 2026-05-01 10:54 | 39.72973 | -4.05836 | 35146 ft | 414 kts | 215° |
| 2026-05-01 10:55 | 39.68179 | -4.10010 | 35146 ft | 415 kts | 215° |
| 2026-05-01 10:55 | 39.63353 | -4.14207 | 35185 ft | 417 kts | 215° |
| 2026-05-01 10:55 | 39.60937 | -4.16306 | 35374 ft | 419 kts | 215° |
| 2026-05-01 10:56 | 39.58549 | -4.18379 | 35583 ft | 419 kts | 215° |
| 2026-05-01 10:56 | 39.56130 | -4.20477 | 35834 ft | 418 kts | 215° |
| 2026-05-01 10:56 | 39.53710 | -4.22570 | 36100 ft | 417 kts | 215° |
| 2026-05-01 10:56 | 39.51301 | -4.24650 | 36341 ft | 416 kts | 215° |
| 2026-05-01 10:57 | 39.48891 | -4.26732 | 36588 ft | 415 kts | 215° |
| 2026-05-01 10:57 | 39.46489 | -4.28806 | 36827 ft | 415 kts | 215° |
| 2026-05-01 10:57 | 39.44091 | -4.30875 | 37048 ft | 414 kts | 214° |
| 2026-05-01 10:57 | 39.41693 | -4.32941 | 37159 ft | 414 kts | 214° |
| 2026-05-01 10:58 | 39.39294 | -4.35005 | 37163 ft | 413 kts | 214° |
| 2026-05-01 10:58 | 39.34539 | -4.39088 | 37159 ft | 413 kts | 214° |
| 2026-05-01 10:59 | 39.29754 | -4.43191 | 37169 ft | 413 kts | 214° |
| 2026-05-01 10:59 | 39.24960 | -4.47299 | 37162 ft | 413 kts | 214° |
| 2026-05-01 11:00 | 39.20168 | -4.51397 | 37166 ft | 413 kts | 214° |
| 2026-05-01 11:00 | 39.15376 | -4.55490 | 37158 ft | 413 kts | 214° |
| 2026-05-01 11:01 | 39.10587 | -4.59579 | 37153 ft | 413 kts | 214° |
| 2026-05-01 11:01 | 39.05820 | -4.63640 | 37155 ft | 413 kts | 214° |
| 2026-05-01 11:02 | 39.01016 | -4.67709 | 37149 ft | 413 kts | 213° |
| 2026-05-01 11:02 | 38.96221 | -4.71779 | 37148 ft | 413 kts | 213° |
| 2026-05-01 11:03 | 38.91429 | -4.75846 | 37147 ft | 413 kts | 213° |
| 2026-05-01 11:03 | 38.86630 | -4.79904 | 37145 ft | 413 kts | 213° |
| 2026-05-01 11:04 | 38.81862 | -4.83927 | 37147 ft | 413 kts | 213° |
| 2026-05-01 11:04 | 38.77054 | -4.87975 | 37147 ft | 413 kts | 213° |
| 2026-05-01 11:05 | 38.72241 | -4.92016 | 37141 ft | 413 kts | 213° |
| 2026-05-01 11:05 | 38.67432 | -4.96052 | 37137 ft | 414 kts | 213° |
| 2026-05-01 11:06 | 38.62610 | -5.00097 | 37140 ft | 414 kts | 213° |
| 2026-05-01 11:06 | 38.57795 | -5.04138 | 37141 ft | 414 kts | 213° |
| 2026-05-01 11:07 | 38.50558 | -5.10098 | 37136 ft | 414 kts | 208° |
| 2026-05-01 11:07 | 38.45378 | -5.13351 | 37133 ft | 414 kts | 206° |
| 2026-05-01 11:08 | 38.40195 | -5.16574 | 37134 ft | 414 kts | 206° |
| 2026-05-01 11:09 | 38.32414 | -5.21406 | 37135 ft | 415 kts | 206° |
| 2026-05-01 11:09 | 38.27227 | -5.24616 | 37137 ft | 415 kts | 206° |
| 2026-05-01 11:10 | 38.19461 | -5.29422 | 37137 ft | 415 kts | 206° |
| 2026-05-01 11:10 | 38.14269 | -5.32626 | 37137 ft | 415 kts | 206° |
| 2026-05-01 11:11 | 38.09079 | -5.35823 | 37135 ft | 415 kts | 206° |
| 2026-05-01 11:11 | 38.03879 | -5.39015 | 37139 ft | 415 kts | 206° |
| 2026-05-01 11:12 | 37.98683 | -5.42204 | 37130 ft | 415 kts | 206° |
| 2026-05-01 11:12 | 37.93477 | -5.45394 | 37143 ft | 415 kts | 206° |
| 2026-05-01 11:13 | 37.88296 | -5.48558 | 37140 ft | 415 kts | 207° |
| 2026-05-01 11:13 | 37.83086 | -5.51742 | 37139 ft | 416 kts | 206° |
| 2026-05-01 11:14 | 37.77878 | -5.54920 | 37134 ft | 416 kts | 207° |
| 2026-05-01 11:14 | 37.72663 | -5.58099 | 37140 ft | 416 kts | 207° |
| 2026-05-01 11:15 | 37.67443 | -5.61279 | 37133 ft | 416 kts | 207° |
| 2026-05-01 11:15 | 37.62253 | -5.64429 | 37140 ft | 416 kts | 207° |
| 2026-05-01 11:16 | 37.57030 | -5.67595 | 37142 ft | 416 kts | 207° |
| 2026-05-01 11:16 | 37.51808 | -5.70753 | 37147 ft | 416 kts | 207° |
| 2026-05-01 11:17 | 37.46573 | -5.73921 | 37151 ft | 416 kts | 207° |
| 2026-05-01 11:17 | 37.41564 | -5.77511 | 37151 ft | 414 kts | 220° |
| 2026-05-01 11:18 | 37.37198 | -5.82166 | 37152 ft | 414 kts | 221° |
| 2026-05-01 11:18 | 37.32810 | -5.86842 | 37158 ft | 414 kts | 221° |
| 2026-05-01 11:19 | 37.28410 | -5.91506 | 37153 ft | 414 kts | 221° |
| 2026-05-01 11:19 | 37.24016 | -5.96164 | 37154 ft | 413 kts | 221° |
| 2026-05-01 11:20 | 37.19620 | -6.00821 | 37149 ft | 413 kts | 221° |
| 2026-05-01 11:20 | 37.15225 | -6.05481 | 37154 ft | 413 kts | 221° |
| 2026-05-01 11:21 | 37.10829 | -6.10121 | 37150 ft | 413 kts | 221° |
| 2026-05-01 11:21 | 37.06439 | -6.14746 | 37153 ft | 412 kts | 221° |
| 2026-05-01 11:22 | 37.02046 | -6.19365 | 37155 ft | 412 kts | 221° |
| 2026-05-01 11:22 | 36.97655 | -6.23977 | 37159 ft | 412 kts | 221° |
| 2026-05-01 11:23 | 36.93274 | -6.28582 | 37163 ft | 412 kts | 221° |
| 2026-05-01 11:23 | 36.88919 | -6.33154 | 37168 ft | 411 kts | 221° |
| 2026-05-01 11:24 | 36.84531 | -6.37743 | 37181 ft | 411 kts | 221° |
| 2026-05-01 11:25 | 36.77943 | -6.44613 | 37188 ft | 411 kts | 221° |
| 2026-05-01 11:25 | 36.71364 | -6.51459 | 37185 ft | 411 kts | 222° |
| 2026-05-01 11:26 | 36.64812 | -6.58267 | 37181 ft | 410 kts | 222° |
| 2026-05-01 11:27 | 36.60426 | -6.62816 | 37171 ft | 410 kts | 222° |
| 2026-05-01 11:27 | 36.56037 | -6.67364 | 37174 ft | 410 kts | 222° |
| 2026-05-01 11:28 | 36.51656 | -6.71900 | 37172 ft | 410 kts | 222° |
| 2026-05-01 11:28 | 36.47274 | -6.76430 | 37174 ft | 409 kts | 222° |
| 2026-05-01 11:29 | 36.40728 | -6.83164 | 37182 ft | 409 kts | 222° |
| 2026-05-01 11:30 | 36.34166 | -6.89921 | 37183 ft | 408 kts | 222° |
| 2026-05-01 11:30 | 36.29788 | -6.94408 | 37187 ft | 408 kts | 222° |
| 2026-05-01 11:31 | 36.25411 | -6.98891 | 37188 ft | 408 kts | 223° |
| 2026-05-01 11:31 | 36.21042 | -7.03363 | 37191 ft | 407 kts | 223° |
| 2026-05-01 11:32 | 36.16669 | -7.07831 | 37184 ft | 407 kts | 223° |
| 2026-05-01 11:32 | 36.12299 | -7.12284 | 37188 ft | 407 kts | 223° |
| 2026-05-01 11:33 | 36.07931 | -7.16730 | 37182 ft | 406 kts | 223° |
| 2026-05-01 11:33 | 36.03568 | -7.21171 | 37035 ft | 406 kts | 227° |
| 2026-05-01 11:33 | 36.01407 | -7.23361 | 37170 ft | 399 kts | 226° |
| 2026-05-01 11:34 | 35.99272 | -7.25526 | 37191 ft | 396 kts | 226° |
| 2026-05-01 11:34 | 35.95051 | -7.29799 | 37188 ft | 394 kts | 226° |
| 2026-05-01 11:35 | 35.90822 | -7.34089 | 37192 ft | 394 kts | 226° |
| 2026-05-01 11:35 | 35.86587 | -7.38380 | 37194 ft | 394 kts | 226° |
| 2026-05-01 11:36 | 35.82351 | -7.42659 | 37190 ft | 394 kts | 226° |
| 2026-05-01 11:36 | 35.78099 | -7.46916 | 37191 ft | 394 kts | 226° |
| 2026-05-01 11:37 | 35.73841 | -7.51160 | 37185 ft | 394 kts | 225° |
| 2026-05-01 11:37 | 35.69602 | -7.55381 | 37180 ft | 394 kts | 225° |
| 2026-05-01 11:38 | 35.65339 | -7.59625 | 37183 ft | 394 kts | 225° |
| 2026-05-01 11:38 | 35.61061 | -7.63862 | 37184 ft | 394 kts | 225° |
| 2026-05-01 11:39 | 35.56786 | -7.68099 | 37182 ft | 395 kts | 225° |
| 2026-05-01 11:39 | 35.52513 | -7.72336 | 37183 ft | 395 kts | 225° |
| 2026-05-01 11:40 | 35.48241 | -7.76570 | 37180 ft | 395 kts | 225° |
| 2026-05-01 11:40 | 35.43959 | -7.80800 | 37179 ft | 395 kts | 225° |
| 2026-05-01 11:41 | 35.39703 | -7.85002 | 37180 ft | 395 kts | 225° |
| 2026-05-01 11:41 | 35.35446 | -7.89264 | 37180 ft | 395 kts | 225° |
| 2026-05-01 11:42 | 35.31191 | -7.93538 | 37174 ft | 396 kts | 225° |
| 2026-05-01 11:42 | 35.26921 | -7.97799 | 37180 ft | 396 kts | 225° |
| 2026-05-01 11:43 | 35.22647 | -8.02060 | 37178 ft | 396 kts | 225° |
| 2026-05-01 11:43 | 35.18362 | -8.06322 | 37180 ft | 397 kts | 225° |
| 2026-05-01 11:44 | 35.11929 | -8.12700 | 37180 ft | 397 kts | 224° |
| 2026-05-01 11:44 | 35.07664 | -8.16920 | 37186 ft | 397 kts | 225° |
| 2026-05-01 11:45 | 35.03374 | -8.21175 | 37189 ft | 397 kts | 224° |
| 2026-05-01 11:45 | 34.99073 | -8.25420 | 37184 ft | 398 kts | 224° |
| 2026-05-01 11:46 | 34.94775 | -8.29677 | 37174 ft | 398 kts | 224° |
| 2026-05-01 11:46 | 34.90460 | -8.33933 | 37180 ft | 398 kts | 224° |
| 2026-05-01 11:47 | 34.86144 | -8.38170 | 37173 ft | 399 kts | 224° |
| 2026-05-01 11:47 | 34.82557 | -8.41693 | 37174 ft | 399 kts | 224° |
| 2026-05-01 11:48 | 34.77541 | -8.46632 | 37180 ft | 399 kts | 224° |
| 2026-05-01 11:48 | 34.73218 | -8.50874 | 37182 ft | 399 kts | 224° |
| 2026-05-01 11:49 | 34.69619 | -8.54391 | 37183 ft | 399 kts | 224° |
| 2026-05-01 11:49 | 34.65289 | -8.58619 | 37184 ft | 399 kts | 224° |
| 2026-05-01 11:50 | 34.60960 | -8.62842 | 37187 ft | 399 kts | 224° |
| 2026-05-01 11:50 | 34.56629 | -8.67064 | 37187 ft | 399 kts | 224° |
| 2026-05-01 11:51 | 34.52297 | -8.71289 | 37183 ft | 399 kts | 224° |
| 2026-05-01 11:51 | 34.47966 | -8.75506 | 37185 ft | 399 kts | 223° |
| 2026-05-01 11:52 | 34.43656 | -8.79683 | 37183 ft | 399 kts | 223° |
| 2026-05-01 11:52 | 34.39305 | -8.83870 | 37185 ft | 399 kts | 223° |
| 2026-05-01 11:53 | 34.34955 | -8.88053 | 37190 ft | 399 kts | 223° |
| 2026-05-01 11:53 | 34.30606 | -8.92231 | 37184 ft | 399 kts | 223° |
| 2026-05-01 11:54 | 34.26245 | -8.96409 | 37185 ft | 399 kts | 223° |
| 2026-05-01 11:54 | 34.21890 | -9.00577 | 37186 ft | 399 kts | 223° |
| 2026-05-01 11:55 | 34.17528 | -9.04738 | 37186 ft | 400 kts | 223° |
| 2026-05-01 11:55 | 34.13166 | -9.08901 | 37182 ft | 400 kts | 223° |
| 2026-05-01 11:56 | 34.08832 | -9.13040 | 37190 ft | 400 kts | 223° |
| 2026-05-01 11:56 | 34.04467 | -9.17202 | 37184 ft | 400 kts | 223° |
| 2026-05-01 11:57 | 34.00100 | -9.21356 | 37184 ft | 400 kts | 223° |
| 2026-05-01 11:57 | 33.95733 | -9.25502 | 37184 ft | 400 kts | 223° |
| 2026-05-01 11:58 | 33.91359 | -9.29646 | 37191 ft | 400 kts | 223° |
| 2026-05-01 11:59 | 33.84802 | -9.35856 | 37180 ft | 400 kts | 223° |
| 2026-05-01 11:59 | 33.80459 | -9.39962 | 37184 ft | 400 kts | 223° |
| 2026-05-01 12:00 | 33.73888 | -9.46160 | 37180 ft | 400 kts | 223° |
| 2026-05-01 12:01 | 33.67318 | -9.52352 | 37179 ft | 400 kts | 223° |
| 2026-05-01 12:01 | 33.62937 | -9.56472 | 37176 ft | 400 kts | 223° |
| 2026-05-01 12:02 | 33.58555 | -9.60587 | 37178 ft | 400 kts | 223° |
| 2026-05-01 12:02 | 33.54193 | -9.64674 | 37180 ft | 400 kts | 223° |
| 2026-05-01 12:03 | 33.49813 | -9.68784 | 37173 ft | 400 kts | 223° |
| 2026-05-01 12:03 | 33.45430 | -9.72889 | 37175 ft | 400 kts | 223° |
| 2026-05-01 12:04 | 33.41036 | -9.76983 | 37182 ft | 400 kts | 223° |
| 2026-05-01 12:04 | 33.36648 | -9.81070 | 37179 ft | 400 kts | 223° |
| 2026-05-01 12:05 | 33.32262 | -9.85162 | 37177 ft | 400 kts | 223° |
| 2026-05-01 12:05 | 33.25676 | -9.91292 | 37177 ft | 400 kts | 223° |
| 2026-05-01 12:06 | 33.21277 | -9.95368 | 37176 ft | 400 kts | 223° |
| 2026-05-01 12:06 | 33.16913 | -9.99415 | 37177 ft | 400 kts | 223° |
| 2026-05-01 12:07 | 33.12521 | -10.03489 | 37178 ft | 400 kts | 223° |
| 2026-05-01 12:07 | 33.08123 | -10.07550 | 37180 ft | 400 kts | 223° |
| 2026-05-01 12:08 | 33.03726 | -10.11608 | 37180 ft | 400 kts | 223° |
| 2026-05-01 12:08 | 32.99331 | -10.15662 | 37177 ft | 400 kts | 223° |
| 2026-05-01 12:09 | 32.94936 | -10.19713 | 37179 ft | 400 kts | 223° |
| 2026-05-01 12:09 | 32.90560 | -10.23731 | 37174 ft | 400 kts | 223° |
| 2026-05-01 12:10 | 32.83956 | -10.29789 | 37173 ft | 400 kts | 223° |
| 2026-05-01 12:11 | 32.77342 | -10.35845 | 37172 ft | 400 kts | 223° |
| 2026-05-01 12:11 | 32.72954 | -10.39850 | 37172 ft | 400 kts | 223° |
| 2026-05-01 12:12 | 32.68543 | -10.43877 | 37176 ft | 400 kts | 223° |
| 2026-05-01 12:12 | 32.64127 | -10.47902 | 37177 ft | 400 kts | 223° |
| 2026-05-01 12:13 | 32.59712 | -10.51929 | 37173 ft | 400 kts | 223° |
| 2026-05-01 12:13 | 32.55294 | -10.55948 | 37169 ft | 400 kts | 223° |
| 2026-05-01 12:14 | 32.50870 | -10.59968 | 37164 ft | 401 kts | 223° |
| 2026-05-01 12:14 | 32.46437 | -10.63985 | 37167 ft | 401 kts | 223° |
| 2026-05-01 12:15 | 32.42028 | -10.67978 | 37163 ft | 401 kts | 223° |
| 2026-05-01 12:15 | 32.37587 | -10.71992 | 37165 ft | 402 kts | 223° |
| 2026-05-01 12:16 | 32.33144 | -10.76005 | 37168 ft | 402 kts | 223° |
| 2026-05-01 12:16 | 32.28699 | -10.80017 | 37169 ft | 402 kts | 223° |
| 2026-05-01 12:17 | 32.24252 | -10.84033 | 37168 ft | 402 kts | 223° |
| 2026-05-01 12:17 | 32.19799 | -10.88036 | 37171 ft | 403 kts | 223° |
| 2026-05-01 12:18 | 32.15342 | -10.92040 | 37174 ft | 403 kts | 223° |
| 2026-05-01 12:18 | 32.10913 | -10.96024 | 37170 ft | 403 kts | 223° |
| 2026-05-01 12:19 | 32.06456 | -11.00034 | 37174 ft | 403 kts | 222° |
| 2026-05-01 12:19 | 32.01989 | -11.04034 | 37176 ft | 403 kts | 222° |
| 2026-05-01 12:20 | 31.97516 | -11.08031 | 37172 ft | 403 kts | 222° |
| 2026-05-01 12:20 | 31.93045 | -11.12025 | 37176 ft | 404 kts | 222° |
| 2026-05-01 12:21 | 31.88568 | -11.16024 | 37171 ft | 404 kts | 222° |
| 2026-05-01 12:21 | 31.84088 | -11.20018 | 37168 ft | 404 kts | 222° |
| 2026-05-01 12:22 | 31.79605 | -11.24010 | 37169 ft | 404 kts | 222° |
| 2026-05-01 12:22 | 31.75120 | -11.27997 | 37166 ft | 404 kts | 222° |
| 2026-05-01 12:23 | 31.70670 | -11.31969 | 37167 ft | 404 kts | 222° |
| 2026-05-01 12:23 | 31.66188 | -11.35977 | 37164 ft | 404 kts | 222° |
| 2026-05-01 12:24 | 31.61700 | -11.39972 | 37165 ft | 405 kts | 222° |
| 2026-05-01 12:24 | 31.57208 | -11.43953 | 37164 ft | 405 kts | 222° |
| 2026-05-01 12:25 | 31.50492 | -11.49909 | 37164 ft | 405 kts | 222° |
| 2026-05-01 12:26 | 31.45995 | -11.53900 | 37163 ft | 406 kts | 222° |
| 2026-05-01 12:26 | 31.39229 | -11.59879 | 37163 ft | 406 kts | 222° |
| 2026-05-01 12:27 | 31.32467 | -11.65863 | 37165 ft | 406 kts | 222° |
| 2026-05-01 12:28 | 31.25689 | -11.71836 | 37171 ft | 407 kts | 222° |
| 2026-05-01 12:29 | 31.18936 | -11.77782 | 37173 ft | 407 kts | 221° |
| 2026-05-01 12:29 | 31.12134 | -11.83756 | 37171 ft | 408 kts | 221° |
| 2026-05-01 12:30 | 31.05332 | -11.89713 | 37179 ft | 408 kts | 221° |
| 2026-05-01 12:31 | 31.00793 | -11.93688 | 37179 ft | 408 kts | 221° |
| 2026-05-01 12:31 | 30.96253 | -11.97658 | 37179 ft | 408 kts | 221° |
| 2026-05-01 12:32 | 30.91709 | -12.01631 | 37181 ft | 408 kts | 221° |
| 2026-05-01 12:32 | 30.84890 | -12.07586 | 37178 ft | 409 kts | 221° |
| 2026-05-01 12:33 | 30.80339 | -12.11551 | 37178 ft | 409 kts | 221° |
| 2026-05-01 12:33 | 30.75780 | -12.15511 | 37176 ft | 409 kts | 221° |
| 2026-05-01 12:34 | 30.71253 | -12.19443 | 37176 ft | 409 kts | 221° |
| 2026-05-01 12:34 | 30.66697 | -12.23395 | 37175 ft | 409 kts | 221° |
| 2026-05-01 12:35 | 30.62138 | -12.27347 | 37172 ft | 409 kts | 221° |
| 2026-05-01 12:35 | 30.57580 | -12.31297 | 37173 ft | 409 kts | 221° |
| 2026-05-01 12:36 | 30.53011 | -12.35239 | 37174 ft | 409 kts | 221° |
| 2026-05-01 12:36 | 30.48436 | -12.39187 | 37174 ft | 410 kts | 221° |
| 2026-05-01 12:37 | 30.43856 | -12.43129 | 37175 ft | 410 kts | 221° |
| 2026-05-01 12:37 | 30.39267 | -12.47065 | 37174 ft | 410 kts | 221° |
| 2026-05-01 12:38 | 30.34678 | -12.51000 | 37175 ft | 411 kts | 221° |
| 2026-05-01 12:38 | 30.30111 | -12.54909 | 37180 ft | 411 kts | 221° |
| 2026-05-01 12:39 | 30.25501 | -12.58851 | 37183 ft | 412 kts | 220° |
| 2026-05-01 12:39 | 30.20895 | -12.62788 | 37184 ft | 412 kts | 220° |
| 2026-05-01 12:40 | 30.16281 | -12.66723 | 37188 ft | 412 kts | 220° |
| 2026-05-01 12:40 | 30.11671 | -12.70654 | 37191 ft | 412 kts | 220° |
| 2026-05-01 12:41 | 30.07055 | -12.74591 | 37191 ft | 413 kts | 220° |
| 2026-05-01 12:41 | 30.02440 | -12.78534 | 37194 ft | 413 kts | 220° |
| 2026-05-01 12:42 | 29.97825 | -12.82477 | 37194 ft | 413 kts | 220° |
| 2026-05-01 12:42 | 29.93227 | -12.86393 | 37198 ft | 413 kts | 220° |
| 2026-05-01 12:43 | 29.88602 | -12.90335 | 37194 ft | 413 kts | 220° |
| 2026-05-01 12:43 | 29.83979 | -12.94271 | 37187 ft | 413 kts | 220° |
| 2026-05-01 12:44 | 29.79348 | -12.98201 | 37194 ft | 413 kts | 220° |
| 2026-05-01 12:45 | 29.70087 | -13.06061 | 37187 ft | 414 kts | 220° |
| 2026-05-01 12:45 | 29.65445 | -13.09988 | 37185 ft | 414 kts | 220° |
| 2026-05-01 12:46 | 29.60796 | -13.13915 | 37190 ft | 414 kts | 220° |
| 2026-05-01 12:46 | 29.56152 | -13.17844 | 37187 ft | 415 kts | 220° |
| 2026-05-01 12:47 | 29.52285 | -13.21108 | 37186 ft | 415 kts | 220° |
| 2026-05-01 12:47 | 29.47632 | -13.25033 | 37185 ft | 415 kts | 220° |
| 2026-05-01 12:48 | 29.42971 | -13.28950 | 37185 ft | 415 kts | 220° |
| 2026-05-01 12:48 | 29.38309 | -13.32868 | 37186 ft | 415 kts | 220° |
| 2026-05-01 12:49 | 29.33647 | -13.36787 | 37185 ft | 415 kts | 220° |
| 2026-05-01 12:49 | 29.28979 | -13.40703 | 37184 ft | 416 kts | 220° |
| 2026-05-01 12:50 | 29.24312 | -13.44617 | 37185 ft | 416 kts | 220° |
| 2026-05-01 12:50 | 29.19641 | -13.48532 | 37183 ft | 416 kts | 220° |
| 2026-05-01 12:51 | 29.15039 | -13.52467 | 37183 ft | 415 kts | 223° |
| 2026-05-01 12:52 | 29.08512 | -13.58943 | 37180 ft | 414 kts | 225° |
| 2026-05-01 12:52 | 29.02045 | -13.65485 | 37180 ft | 414 kts | 224° |
| 2026-05-01 12:53 | 28.95486 | -13.71935 | 37181 ft | 414 kts | 224° |
| 2026-05-01 12:54 | 28.91116 | -13.76228 | 37181 ft | 414 kts | 224° |
| 2026-05-01 12:54 | 28.84591 | -13.82641 | 37183 ft | 415 kts | 224° |
| 2026-05-01 12:55 | 28.78034 | -13.89078 | 37181 ft | 415 kts | 224° |
| 2026-05-01 12:56 | 28.73679 | -13.93339 | 37173 ft | 415 kts | 224° |
| 2026-05-01 12:56 | 28.69282 | -13.97640 | 37117 ft | 416 kts | 224° |
| 2026-05-01 12:56 | 28.67085 | -13.99789 | 36847 ft | 416 kts | 224° |
| 2026-05-01 12:57 | 28.64888 | -14.01938 | 36588 ft | 416 kts | 224° |
| 2026-05-01 12:57 | 28.60476 | -14.06250 | 35206 ft | 422 kts | 223° |
| 2026-05-01 12:57 | 28.58243 | -14.08437 | 34505 ft | 423 kts | 223° |
| 2026-05-01 12:58 | 28.56024 | -14.10601 | 34020 ft | 419 kts | 223° |
| 2026-05-01 12:58 | 28.53820 | -14.12745 | 33459 ft | 415 kts | 222° |
| 2026-05-01 12:58 | 28.51635 | -14.14867 | 32936 ft | 411 kts | 222° |
| 2026-05-01 12:59 | 28.47328 | -14.19058 | 31893 ft | 404 kts | 222° |
| 2026-05-01 12:59 | 28.45197 | -14.21130 | 31384 ft | 401 kts | 222° |
| 2026-05-01 12:59 | 28.40978 | -14.25229 | 30334 ft | 397 kts | 222° |
| 2026-05-01 13:00 | 28.36804 | -14.29287 | 29230 ft | 391 kts | 222° |
| 2026-05-01 13:00 | 28.34743 | -14.31284 | 28725 ft | 387 kts | 222° |
| 2026-05-01 13:01 | 28.30683 | -14.35216 | 27734 ft | 379 kts | 222° |
| 2026-05-01 13:01 | 28.28686 | -14.37147 | 27263 ft | 376 kts | 222° |
| 2026-05-01 13:01 | 28.24751 | -14.40954 | 26330 ft | 368 kts | 222° |
| 2026-05-01 13:02 | 28.22807 | -14.42833 | 25873 ft | 365 kts | 222° |
| 2026-05-01 13:07 | 27.85937 | -14.81428 | 15957 ft | 328 kts | 226° |
| 2026-05-01 13:07 | 27.84362 | -14.83284 | 15517 ft | 327 kts | 226° |
| 2026-05-01 13:07 | 27.82786 | -14.85137 | 15086 ft | 326 kts | 226° |
| 2026-05-01 13:08 | 27.81215 | -14.86982 | 14654 ft | 325 kts | 226° |
| 2026-05-01 13:08 | 27.79648 | -14.88826 | 14217 ft | 325 kts | 226° |
| 2026-05-01 13:08 | 27.78084 | -14.90667 | 13757 ft | 325 kts | 226° |
| 2026-05-01 13:08 | 27.76523 | -14.92502 | 13305 ft | 323 kts | 226° |
| 2026-05-01 13:09 | 27.74974 | -14.94325 | 12924 ft | 319 kts | 227° |
| 2026-05-01 13:09 | 27.73464 | -14.96099 | 12794 ft | 307 kts | 227° |
| 2026-05-01 13:09 | 27.72018 | -14.97797 | 12661 ft | 290 kts | 227° |
| 2026-05-01 13:09 | 27.70666 | -14.99386 | 12533 ft | 270 kts | 227° |
| 2026-05-01 13:10 | 27.69549 | -15.01000 | 12293 ft | 256 kts | 241° |
| 2026-05-01 13:10 | 27.68774 | -15.02775 | 11981 ft | 250 kts | 244° |
| 2026-05-01 13:10 | 27.68007 | -15.04548 | 11646 ft | 252 kts | 244° |
| 2026-05-01 13:10 | 27.67232 | -15.06328 | 11360 ft | 251 kts | 244° |
| 2026-05-01 13:11 | 27.66459 | -15.08100 | 11025 ft | 251 kts | 244° |
| 2026-05-01 13:11 | 27.65697 | -15.09845 | 10611 ft | 247 kts | 244° |
| 2026-05-01 13:11 | 27.64943 | -15.11569 | 10185 ft | 243 kts | 244° |
| 2026-05-01 13:11 | 27.64212 | -15.13303 | 9778 ft | 246 kts | 250° |
| 2026-05-01 13:12 | 27.63897 | -15.15196 | 9393 ft | 248 kts | 269° |
| 2026-05-01 13:12 | 27.64188 | -15.17112 | 9022 ft | 251 kts | 288° |
| 2026-05-01 13:12 | 27.64831 | -15.18942 | 8658 ft | 251 kts | 289° |
| 2026-05-01 13:12 | 27.65475 | -15.20768 | 8296 ft | 251 kts | 289° |
| 2026-05-01 13:13 | 27.66113 | -15.22586 | 7901 ft | 245 kts | 289° |
| 2026-05-01 13:13 | 27.66730 | -15.24346 | 7533 ft | 237 kts | 289° |
| 2026-05-01 13:13 | 27.67332 | -15.26065 | 7100 ft | 234 kts | 290° |
| 2026-05-01 13:13 | 27.67926 | -15.27763 | 6712 ft | 232 kts | 290° |
| 2026-05-01 13:14 | 27.68315 | -15.28875 | 6481 ft | 229 kts | 290° |
| 2026-05-01 13:14 | 27.69037 | -15.30944 | 6033 ft | 233 kts | 290° |
| 2026-05-01 13:14 | 27.69635 | -15.32656 | 5676 ft | 234 kts | 290° |
| 2026-05-01 13:14 | 27.70227 | -15.34346 | 5342 ft | 229 kts | 290° |
| 2026-05-01 13:15 | 27.70805 | -15.36002 | 5004 ft | 224 kts | 290° |
| 2026-05-01 13:15 | 27.71372 | -15.37626 | 4664 ft | 220 kts | 291° |
| 2026-05-01 13:15 | 27.71931 | -15.39219 | 4331 ft | 215 kts | 291° |
| 2026-05-01 13:15 | 27.72465 | -15.40744 | 4048 ft | 204 kts | 291° |
| 2026-05-01 13:16 | 27.73089 | -15.42145 | 3728 ft | 196 kts | 306° |
| 2026-05-01 13:16 | 27.74023 | -15.43245 | 3438 ft | 194 kts | 323° |
| 2026-05-01 13:16 | 27.75183 | -15.43984 | 3228 ft | 188 kts | 336° |
| 2026-05-01 13:17 | 27.78933 | -15.44942 | 2900 ft | 190 kts | 16° |
| 2026-05-01 13:17 | 27.80160 | -15.44425 | 2627 ft | 188 kts | 21° |
| 2026-05-01 13:18 | 27.82561 | -15.43353 | 2050 ft | 179 kts | 21° |
| 2026-05-01 13:18 | 27.83695 | -15.42852 | 1815 ft | 170 kts | 21° |
| 2026-05-01 13:18 | 27.84777 | -15.42374 | 1611 ft | 164 kts | 22° |
| 2026-05-01 13:18 | 27.85818 | -15.41915 | 1371 ft | 158 kts | 22° |
| 2026-05-01 13:19 | 27.86806 | -15.41473 | 1132 ft | 147 kts | 23° |
| 2026-05-01 13:19 | 27.87739 | -15.41040 | 910 ft | 141 kts | 25° |
| 2026-05-01 13:19 | 27.89527 | -15.40266 | 642 ft | 138 kts | 24° |
| 2026-05-01 13:20 | 27.90419 | -15.39880 | 450 ft | 137 kts | 23° |
| 2026-05-01 13:20 | 27.91306 | -15.39490 | 272 ft | 137 kts | 23° |
| 2026-05-01 13:20 | 27.92186 | -15.39102 | 91 ft | 135 kts | 24° |
| 2026-05-01 13:21 | 27.93229 | -15.38640 | 60 ft | 46 kts | 21° |
| 2026-05-01 13:21 | 27.93502 | -15.38520 | 60 ft | 38 kts | 22° |
| 2026-05-01 13:21 | 27.93737 | -15.38428 | 56 ft | 34 kts | 13° |
| 2026-05-01 13:21 | 27.93937 | -15.38441 | 68 ft | 18 kts | 349° |
| 2026-05-01 13:22 | 27.94007 | -15.38465 | 65 ft | 8 kts | 304° |
| 2026-05-01 13:22 | 27.93970 | -15.38506 | 73 ft | 10 kts | 201° |
| 2026-05-01 13:22 | 27.93904 | -15.38535 | 72 ft | 9 kts | 201° |
| 2026-05-01 13:22 | 27.93853 | -15.38557 | 72 ft | 8 kts | 201° |
| 2026-05-01 13:23 | 27.93787 | -15.38587 | 70 ft | 11 kts | 200° |
| 2026-05-01 13:23 | 27.93723 | -15.38614 | 72 ft | 6 kts | 201° |
| 2026-05-01 13:23 | 27.93705 | -15.38631 | 84 ft | 4 kts | 244° |
| 2026-05-01 13:23 | 27.93710 | -15.38652 | 85 ft | 3 kts | 294° |
| 2026-05-01 13:24 | 27.93719 | -15.38674 | 82 ft | 3 kts | 292° |
| 2026-05-01 13:24 | 27.93727 | -15.38698 | 86 ft | 1 kts | 291° |
| 2026-05-01 13:24 | 27.93728 | -15.38702 | 86 ft | 0 kts | 291° |